createdAt,value
2022-11-21T00:01:14.084Z,62.14
2022-11-21T00:03:41.835Z,62.33
2022-11-21T00:06:09.368Z,62.57
2022-11-21T00:08:36.872Z,61.43
2022-11-21T00:11:04.682Z,61.08
2022-11-21T00:13:32.110Z,62.02
2022-11-21T00:16:07.509Z,63.00
2022-11-21T00:18:35.550Z,63.19
2022-11-21T00:21:08.231Z,62.79
2022-11-21T00:23:36.164Z,62.73
2022-11-21T00:26:05.214Z,62.98
2022-11-21T00:28:32.881Z,62.70
2022-11-21T00:31:00.656Z,62.37
2022-11-21T00:33:28.252Z,61.91
2022-11-21T00:35:55.717Z,62.31
2022-11-21T00:38:24.440Z,62.48
2022-11-21T00:40:51.954Z,61.84
2022-11-21T00:43:19.351Z,62.09
2022-11-21T00:45:47.150Z,62.42
2022-11-21T00:48:14.587Z,61.91
2022-11-21T00:50:42.010Z,61.76
2022-11-21T00:53:09.672Z,62.23
2022-11-21T00:55:37.446Z,62.38
2022-11-21T00:58:04.885Z,62.70
2022-11-21T01:00:32.662Z,63.54
2022-11-21T01:03:01.245Z,64.25
2022-11-21T01:05:28.676Z,63.77
2022-11-21T01:07:56.435Z,63.99
2022-11-21T01:10:23.861Z,63.37
2022-11-21T01:12:51.356Z,63.02
2022-11-21T01:15:19.124Z,63.23
2022-11-21T01:17:46.536Z,63.25
2022-11-21T01:20:14.719Z,63.42
2022-11-21T01:22:42.458Z,62.77
2022-11-21T01:25:09.988Z,62.55
2022-11-21T01:27:37.416Z,62.69
2022-11-21T01:30:05.729Z,63.38
2022-11-21T01:32:33.104Z,63.92
2022-11-21T01:35:00.588Z,64.14
2022-11-21T01:37:28.373Z,63.27
2022-11-21T01:39:55.821Z,63.48
2022-11-21T01:42:23.253Z,63.86
2022-11-21T01:44:54.461Z,63.00
2022-11-21T01:47:22.857Z,62.42
2022-11-21T01:49:51.804Z,63.10
2022-11-21T01:52:29.354Z,63.70
2022-11-21T01:55:06.131Z,62.99
2022-11-21T01:57:46.047Z,63.23
2022-11-21T02:00:23.927Z,62.79
2022-11-21T02:02:54.168Z,62.48
2022-11-21T02:05:30.930Z,62.21
2022-11-21T02:08:02.860Z,61.73
2022-11-21T02:10:30.445Z,61.77
2022-11-21T02:12:59.021Z,61.85
2022-11-21T02:15:28.326Z,61.84
2022-11-21T02:17:56.332Z,62.48
2022-11-21T02:20:26.204Z,62.69
2022-11-21T02:22:59.712Z,62.32
2022-11-21T02:25:32.487Z,62.60
2022-11-21T02:28:02.326Z,63.20
2022-11-21T02:30:31.782Z,62.52
2022-11-21T02:32:59.692Z,62.38
2022-11-21T02:35:27.222Z,62.75
2022-11-21T02:37:58.937Z,62.73
2022-11-21T02:40:30.557Z,63.00
2022-11-21T02:43:08.379Z,63.00
2022-11-21T02:45:44.344Z,63.37
2022-11-21T02:48:12.894Z,62.92
2022-11-21T02:50:42.270Z,62.47
2022-11-21T02:53:13.336Z,62.53
2022-11-21T02:55:41.701Z,62.04
2022-11-21T02:58:09.179Z,63.10
2022-11-21T03:00:39.422Z,62.55
2022-11-21T03:03:07.384Z,63.05
2022-11-21T03:05:35.064Z,62.90
2022-11-21T03:08:02.612Z,62.24
2022-11-21T03:10:30.358Z,62.02
2022-11-21T03:13:03.674Z,62.76
2022-11-21T03:15:33.282Z,62.96
2022-11-21T03:18:03.167Z,62.30
2022-11-21T03:20:32.184Z,62.13
2022-11-21T03:22:59.607Z,62.33
2022-11-21T03:25:27.086Z,62.06
2022-11-21T03:27:55.307Z,61.88
2022-11-21T03:30:24.649Z,62.37
2022-11-21T03:32:55.905Z,62.36
2022-11-21T03:35:23.989Z,62.26
2022-11-21T03:37:51.650Z,62.35
2022-11-21T03:40:19.105Z,62.80
2022-11-21T03:42:46.906Z,62.45
2022-11-21T03:45:14.344Z,62.04
2022-11-21T03:47:41.821Z,62.11
2022-11-21T03:50:10.781Z,62.01
2022-11-21T03:52:38.253Z,61.83
2022-11-21T03:55:06.081Z,61.81
2022-11-21T03:57:33.805Z,62.37
2022-11-21T04:00:01.257Z,62.82
2022-11-21T04:02:28.687Z,62.58
2022-11-21T04:04:56.426Z,63.53
2022-11-21T04:07:24.084Z,63.28
2022-11-21T04:09:51.573Z,63.70
2022-11-21T04:12:19.335Z,63.24
2022-11-21T04:14:46.796Z,62.93
2022-11-21T04:17:14.238Z,63.11
2022-11-21T04:19:41.950Z,62.96
2022-11-21T04:22:09.401Z,62.90
2022-11-21T04:24:36.825Z,62.89
2022-11-21T04:27:04.623Z,62.71
2022-11-21T04:29:32.053Z,63.77
2022-11-21T04:31:59.467Z,63.62
2022-11-21T04:34:27.661Z,63.07
2022-11-21T04:36:55.257Z,63.24
2022-11-21T04:39:22.889Z,62.96
2022-11-21T04:41:50.702Z,63.06
2022-11-21T04:44:18.126Z,62.90
2022-11-21T04:46:45.570Z,63.03
2022-11-21T04:49:13.361Z,62.78
2022-11-21T04:51:40.786Z,62.88
2022-11-21T04:54:08.316Z,62.56
2022-11-21T04:56:36.798Z,62.70
2022-11-21T04:59:04.315Z,63.15
2022-11-21T05:01:31.778Z,62.76
2022-11-21T05:03:59.541Z,63.01
2022-11-21T05:06:26.968Z,63.20
2022-11-21T05:08:54.439Z,61.79
2022-11-21T05:11:41.147Z,62.33
2022-11-21T05:18:24.319Z,62.43
2022-11-21T05:20:52.157Z,63.31
2022-11-21T05:23:19.610Z,62.56
2022-11-21T05:25:47.131Z,62.55
2022-11-21T05:28:14.926Z,62.92
2022-11-21T05:30:42.335Z,62.75
2022-11-21T05:33:09.770Z,62.99
2022-11-21T05:35:42.875Z,63.24
2022-11-21T05:38:10.961Z,63.36
2022-11-21T05:40:39.053Z,63.73
2022-11-21T05:43:41.820Z,64.18
2022-11-21T05:46:09.615Z,63.98
2022-11-21T05:48:37.229Z,64.64
2022-11-21T05:51:04.993Z,64.89
2022-11-21T05:53:53.834Z,64.78
2022-11-21T05:56:38.907Z,65.61
2022-11-21T05:59:30.821Z,65.25
2022-11-21T06:02:17.287Z,65.52
2022-11-21T06:04:45.031Z,65.76
2022-11-21T06:07:12.498Z,66.93
2022-11-21T06:09:39.954Z,66.58
2022-11-21T06:12:07.696Z,66.86
2022-11-21T06:14:35.086Z,66.93
2022-11-21T06:17:02.533Z,66.10
2022-11-21T06:19:30.259Z,66.54
2022-11-21T06:21:59.306Z,66.45
2022-11-21T06:24:27.008Z,66.62
2022-11-21T06:26:54.926Z,66.40
2022-11-21T06:29:22.357Z,66.31
2022-11-21T06:31:50.814Z,66.92
2022-11-21T06:34:18.641Z,66.38
2022-11-21T06:36:46.574Z,66.96
2022-11-21T06:39:13.998Z,66.48
2022-11-21T06:41:42.542Z,65.73
2022-11-21T06:44:10.178Z,65.90
2022-11-21T06:46:37.559Z,66.31
2022-11-21T06:49:05.266Z,66.29
2022-11-21T06:51:34.867Z,65.75
2022-11-21T06:54:02.361Z,66.73
2022-11-21T06:56:34.248Z,66.88
2022-11-21T06:59:01.714Z,67.85
2022-11-21T07:01:29.473Z,66.72
2022-11-21T07:04:01.302Z,66.60
2022-11-21T07:06:28.941Z,66.77
2022-11-21T07:11:44.431Z,67.66
2022-11-21T07:14:12.554Z,67.54
2022-11-21T07:16:39.996Z,67.32
2022-11-21T07:19:07.623Z,66.69
2022-11-21T07:21:35.595Z,67.31
2022-11-21T07:24:03.402Z,67.13
2022-11-21T07:26:30.787Z,66.87
2022-11-21T07:28:58.937Z,66.68
2022-11-21T07:31:27.013Z,66.41
2022-11-21T07:33:54.574Z,67.13
2022-11-21T07:36:22.610Z,67.12
2022-11-21T07:38:50.689Z,66.80
2022-11-21T07:41:18.307Z,66.53
2022-11-21T07:43:46.210Z,67.12
2022-11-21T07:46:13.823Z,68.00
2022-11-21T07:48:41.395Z,67.61
2022-11-21T07:51:10.170Z,67.95
2022-11-21T07:53:37.759Z,67.25
2022-11-21T07:56:05.653Z,67.21
2022-11-21T07:58:33.497Z,67.41
2022-11-21T08:01:06.000Z,67.05
2022-11-21T08:03:34.526Z,67.31
2022-11-21T08:06:04.028Z,67.04
2022-11-21T08:08:31.631Z,67.13
2022-11-21T08:11:04.401Z,66.16
2022-11-21T08:13:32.499Z,66.50
2022-11-21T08:16:05.152Z,66.16
2022-11-21T08:18:33.417Z,66.16
2022-11-21T08:21:02.710Z,66.62
2022-11-21T08:23:50.959Z,67.57
2022-11-21T08:26:20.313Z,66.73
2022-11-21T08:28:48.747Z,66.42
2022-11-21T08:31:16.300Z,66.88
2022-11-21T08:33:44.465Z,66.75
2022-11-21T08:36:12.734Z,66.26
2022-11-21T08:38:40.668Z,66.39
2022-11-21T08:41:27.443Z,64.89
2022-11-21T08:43:55.205Z,66.13
2022-11-21T08:46:27.320Z,64.85
2022-11-21T08:48:55.737Z,66.67
2022-11-21T08:51:23.918Z,66.81
2022-11-21T08:53:51.951Z,65.74
2022-11-21T08:56:19.902Z,66.33
2022-11-21T08:58:48.267Z,66.27
2022-11-21T09:01:16.001Z,65.57
2022-11-21T09:03:43.602Z,65.92
2022-11-21T09:06:13.253Z,65.28
2022-11-21T09:08:40.795Z,64.68
2022-11-21T09:11:10.107Z,65.00
2022-11-21T09:13:38.138Z,63.57
2022-11-21T09:16:24.719Z,63.65
2022-11-21T09:18:53.226Z,64.09
2022-11-21T09:21:22.036Z,65.04
2022-11-21T09:23:49.632Z,64.34
2022-11-21T09:26:17.666Z,65.08
2022-11-21T09:28:45.334Z,65.26
2022-11-21T09:31:13.120Z,65.85
2022-11-21T09:33:41.010Z,64.03
2022-11-21T09:36:08.884Z,64.20
2022-11-21T09:38:36.304Z,64.72
2022-11-21T09:41:51.701Z,64.88
2022-11-21T09:44:39.695Z,65.36
2022-11-21T09:47:22.822Z,65.59
2022-11-21T09:50:24.202Z,65.57
2022-11-21T09:53:12.123Z,65.96
2022-11-21T09:55:47.306Z,65.60
2022-11-21T09:58:31.329Z,65.54
2022-11-21T10:00:58.997Z,65.61
2022-11-21T10:03:29.857Z,65.40
2022-11-21T10:06:04.970Z,65.98
2022-11-21T10:08:55.968Z,66.50
2022-11-21T10:12:02.321Z,66.52
2022-11-21T10:14:39.330Z,67.39
2022-11-21T10:17:16.113Z,66.50
2022-11-21T10:20:24.779Z,64.66
2022-11-21T10:23:10.999Z,64.65
2022-11-21T10:25:39.814Z,64.81
2022-11-21T10:28:19.468Z,64.69
2022-11-21T10:30:48.520Z,64.52
2022-11-21T10:33:23.775Z,64.31
2022-11-21T10:35:54.425Z,64.17
2022-11-21T10:38:43.126Z,63.82
2022-11-21T10:41:24.931Z,63.83
2022-11-21T10:44:38.123Z,64.03
2022-11-21T10:47:30.126Z,63.75
2022-11-21T10:50:09.447Z,62.87
2022-11-21T10:52:45.617Z,63.19
2022-11-21T10:55:16.185Z,63.18
2022-11-21T10:57:49.372Z,62.92
2022-11-21T11:00:25.443Z,62.65
2022-11-21T11:03:05.075Z,62.42
2022-11-21T11:05:37.578Z,63.15
2022-11-21T11:08:10.756Z,62.18
2022-11-21T11:10:39.419Z,61.44
2022-11-21T11:13:50.394Z,61.71
2022-11-21T11:16:19.731Z,61.20
2022-11-21T11:18:57.504Z,61.84
2022-11-21T11:21:27.996Z,61.59
2022-11-21T11:24:12.002Z,61.14
2022-11-21T11:26:49.088Z,61.78
2022-11-21T11:29:19.037Z,61.58
2022-11-21T11:31:52.394Z,61.50
2022-11-21T11:34:20.761Z,61.58
2022-11-21T11:37:10.023Z,61.46
2022-11-21T11:39:41.120Z,61.51
2022-11-21T11:42:38.867Z,62.01
2022-11-21T11:45:47.016Z,61.03
2022-11-21T11:48:15.473Z,60.75
2022-11-21T11:50:48.175Z,60.85
2022-11-21T11:53:22.893Z,61.33
2022-11-21T11:56:06.336Z,60.96
2022-11-21T11:58:40.924Z,60.07
2022-11-21T12:01:13.335Z,59.71
2022-11-21T12:03:46.965Z,60.55
2022-11-21T12:07:07.201Z,59.58
2022-11-21T12:09:33.016Z,58.88
2022-11-21T12:12:26.340Z,59.11
2022-11-21T12:15:34.426Z,58.80
2022-11-21T12:18:20.229Z,57.94
2022-11-21T12:20:57.426Z,57.99
2022-11-21T12:23:31.707Z,59.76
2022-11-21T12:29:04.852Z,58.85
2022-11-21T12:31:57.578Z,60.67
2022-11-21T12:34:57.761Z,60.12
2022-11-21T12:37:48.346Z,60.37
2022-11-21T12:40:48.359Z,60.99
2022-11-21T12:43:47.244Z,60.11
2022-11-21T12:50:51.127Z,60.16
2022-11-21T12:54:03.624Z,59.93
2022-11-21T12:57:00.626Z,60.60
2022-11-21T12:59:30.821Z,60.17
2022-11-21T13:02:06.186Z,60.35
2022-11-21T13:04:36.247Z,60.03
2022-11-21T13:07:04.590Z,59.15
2022-11-21T13:09:39.267Z,58.34
2022-11-21T13:12:16.202Z,56.78
2022-11-21T13:14:52.340Z,58.38
2022-11-21T13:17:26.344Z,58.78
2022-11-21T13:20:12.834Z,57.83
2022-11-21T13:22:40.782Z,57.15
2022-11-21T13:25:33.887Z,58.65
2022-11-21T13:28:32.169Z,59.85
2022-11-21T13:31:01.791Z,58.72
2022-11-21T13:33:35.906Z,57.11
2022-11-21T13:36:11.086Z,56.94
2022-11-21T13:38:51.527Z,57.52
2022-11-21T13:41:52.983Z,57.51
2022-11-21T13:44:33.201Z,57.30
2022-11-21T13:47:09.916Z,56.95
2022-11-21T13:49:43.937Z,57.95
2022-11-21T13:52:23.546Z,59.86
2022-11-21T13:55:16.679Z,60.46
2022-11-21T13:58:02.679Z,60.09
2022-11-21T14:15:07.723Z,60.32
2022-11-21T14:18:03.719Z,60.32
2022-11-21T14:21:04.533Z,61.47
2022-11-21T14:24:07.728Z,62.15
2022-11-21T14:26:51.743Z,63.88
2022-11-21T14:29:41.514Z,65.41
2022-11-21T14:32:36.959Z,65.96
2022-11-21T14:35:23.033Z,63.47
2022-11-21T14:38:10.982Z,62.50
2022-11-21T14:41:27.485Z,62.30
2022-11-21T14:47:24.977Z,62.70
2022-11-21T14:50:06.818Z,63.17
2022-11-21T14:52:58.431Z,63.66
2022-11-21T14:55:41.007Z,63.54
2022-11-21T14:58:32.957Z,62.05
2022-11-21T15:01:35.625Z,62.44
2022-11-21T15:04:34.062Z,63.28
2022-11-21T15:07:31.598Z,63.45
2022-11-21T15:10:29.394Z,63.55
2022-11-21T15:13:20.421Z,63.51
2022-11-21T15:16:13.438Z,63.76
2022-11-21T15:19:11.921Z,62.92
2022-11-21T15:21:56.985Z,63.33
2022-11-21T15:24:50.683Z,65.29
2022-11-21T15:27:41.640Z,63.79
2022-11-21T15:30:27.073Z,63.39
2022-11-21T15:33:21.492Z,63.87
2022-11-21T15:36:18.500Z,63.92
2022-11-21T15:39:12.458Z,63.70
2022-11-21T15:42:34.751Z,64.78
2022-11-21T15:48:16.564Z,64.43
2022-11-21T15:51:02.614Z,63.75
2022-11-21T15:53:55.060Z,63.80
2022-11-21T15:59:45.730Z,64.38
2022-11-21T16:02:34.685Z,63.52
2022-11-21T16:05:19.736Z,63.13
2022-11-21T16:08:16.492Z,63.63
2022-11-21T16:10:58.715Z,64.11
2022-11-21T16:13:42.916Z,64.38
2022-11-21T16:16:39.799Z,64.25
2022-11-21T16:19:19.456Z,64.30
2022-11-21T16:22:31.549Z,63.95
2022-11-21T16:25:27.999Z,62.12
2022-11-21T16:28:42.538Z,62.95
2022-11-21T16:31:27.143Z,64.89
2022-11-21T16:34:28.683Z,64.73
2022-11-21T16:37:23.028Z,62.51
2022-11-21T16:40:18.529Z,62.52
2022-11-21T16:43:16.848Z,63.63
2022-11-21T16:46:09.018Z,63.75
2022-11-21T16:51:59.512Z,64.03
2022-11-21T16:54:49.454Z,63.75
2022-11-21T17:00:28.808Z,63.08
2022-11-21T17:03:18.454Z,62.90
2022-11-21T17:06:05.207Z,62.35
2022-11-21T17:09:04.525Z,62.38
2022-11-21T17:12:00.719Z,62.93
2022-11-21T17:14:42.514Z,63.10
2022-11-21T17:17:28.149Z,61.93
2022-11-21T17:20:11.825Z,61.64
2022-11-21T17:23:14.426Z,62.49
2022-11-21T17:26:04.401Z,62.56
2022-11-21T17:29:03.551Z,63.30
2022-11-21T17:32:21.496Z,62.90
2022-11-21T17:37:56.401Z,62.73
2022-11-21T17:43:24.610Z,63.33
2022-11-21T17:46:16.394Z,63.11
2022-11-21T17:49:06.578Z,63.37
2022-11-21T17:52:02.760Z,63.61
2022-11-21T17:54:53.484Z,63.61
2022-11-21T17:57:38.771Z,63.60
2022-11-21T18:00:29.633Z,63.47
2022-11-21T18:03:23.778Z,63.89
2022-11-21T18:06:09.479Z,62.92
2022-11-21T18:09:06.313Z,63.28
2022-11-21T18:11:57.419Z,63.72
2022-11-21T18:17:42.879Z,64.10
2022-11-21T18:20:26.029Z,64.26
2022-11-21T18:23:21.093Z,64.21
2022-11-21T18:26:17.870Z,64.64
2022-11-21T18:31:50.430Z,64.41
2022-11-21T18:34:53.409Z,65.13
2022-11-21T18:37:38.238Z,64.98
2022-11-21T18:40:20.667Z,63.72
2022-11-21T18:43:03.933Z,64.44
2022-11-21T18:46:12.389Z,64.82
2022-11-21T18:49:04.523Z,64.89
2022-11-21T18:52:03.740Z,65.24
2022-11-21T18:55:01.630Z,64.59
2022-11-21T18:57:56.354Z,64.76
2022-11-21T19:00:51.622Z,65.01
2022-11-21T19:03:48.685Z,64.93
2022-11-21T19:06:32.260Z,63.93
2022-11-21T19:12:10.394Z,64.08
2022-11-21T19:14:56.459Z,64.48
2022-11-21T19:17:54.585Z,64.45
2022-11-21T19:20:39.655Z,64.41
2022-11-21T19:23:35.646Z,65.19
2022-11-21T19:29:11.443Z,64.65
2022-11-21T19:31:52.712Z,64.71
2022-11-21T19:40:54.656Z,64.85
2022-11-21T19:43:36.505Z,64.65
2022-11-21T19:46:46.449Z,65.36
2022-11-21T19:49:39.475Z,65.26
2022-11-21T19:52:31.753Z,65.16
2022-11-21T19:55:19.173Z,64.98
2022-11-21T19:58:21.164Z,65.28
2022-11-21T20:01:30.028Z,65.26
2022-11-21T20:04:25.668Z,65.37
2022-11-21T20:09:59.600Z,65.01
2022-11-21T20:12:52.427Z,64.99
2022-11-21T20:15:43.002Z,65.25
2022-11-21T20:18:36.677Z,65.24
2022-11-21T20:21:23.484Z,65.22
2022-11-21T20:27:04.764Z,65.93
2022-11-21T20:29:47.889Z,65.92
2022-11-21T20:32:42.546Z,66.58
2022-11-21T20:35:40.666Z,67.27
2022-11-21T20:42:15.804Z,66.19
2022-11-21T20:48:11.172Z,66.38
2022-11-21T20:53:57.185Z,66.25
2022-11-21T20:56:41.312Z,66.45
2022-11-21T20:59:22.128Z,65.92
2022-11-21T21:02:14.968Z,66.05
2022-11-21T21:05:14.372Z,65.91
2022-11-21T21:12:19.624Z,65.73
2022-11-21T21:20:40.010Z,65.94
2022-11-21T21:23:14.906Z,66.21
2022-11-21T21:26:20.819Z,65.48
2022-11-21T21:29:08.455Z,65.00
2022-11-21T21:32:03.873Z,65.87
2022-11-21T21:34:44.939Z,66.56
2022-11-21T21:37:40.769Z,66.34
2022-11-21T21:40:24.621Z,66.46
2022-11-21T21:43:11.958Z,66.14
2022-11-21T21:46:11.539Z,65.92
2022-11-21T21:48:57.373Z,65.69
2022-11-21T21:51:53.335Z,66.44
2022-11-21T21:54:33.291Z,66.65
2022-11-21T21:57:27.401Z,65.63
2022-11-21T22:00:15.029Z,65.18
2022-11-21T22:03:11.397Z,65.70
2022-11-21T22:05:52.809Z,66.05
2022-11-21T22:08:50.368Z,65.49
2022-11-21T22:11:35.577Z,66.07
2022-11-21T22:14:30.418Z,66.51
2022-11-21T22:17:12.650Z,65.83
2022-11-21T22:20:08.448Z,65.80
2022-11-21T22:22:48.341Z,66.57
2022-11-21T22:25:40.421Z,66.01
2022-11-21T22:28:20.538Z,66.12
2022-11-21T22:31:17.738Z,65.29
2022-11-21T22:33:46.322Z,64.93
2022-11-21T22:36:17.874Z,64.61
2022-11-21T22:38:46.781Z,64.82
2022-11-21T22:41:21.806Z,65.45
2022-11-21T22:44:00.556Z,66.48
2022-11-21T22:46:34.677Z,67.81
2022-11-21T22:49:04.002Z,66.69
2022-11-21T22:51:32.511Z,67.78
2022-11-21T22:54:00.022Z,67.84
2022-11-21T22:56:28.230Z,67.78
2022-11-21T22:58:56.283Z,67.01
2022-11-21T23:01:26.604Z,66.80
2022-11-21T23:03:55.935Z,66.06
2022-11-21T23:06:26.532Z,66.03
2022-11-21T23:08:56.599Z,66.59
2022-11-21T23:11:27.905Z,66.83
2022-11-21T23:13:59.605Z,66.63
2022-11-21T23:17:13.307Z,65.45
2022-11-21T23:19:55.584Z,66.90
2022-11-21T23:22:38.014Z,66.90
2022-11-21T23:25:22.607Z,66.44
2022-11-21T23:28:05.391Z,67.07
2022-11-21T23:30:48.951Z,66.42
2022-11-21T23:33:34.920Z,67.80
2022-11-21T23:36:17.653Z,68.25
2022-11-21T23:39:12.212Z,68.60
2022-11-21T23:41:54.437Z,67.11
2022-11-21T23:44:55.301Z,66.54
2022-11-21T23:47:37.664Z,68.12
2022-11-21T23:50:07.756Z,68.51
2022-11-21T23:52:48.789Z,67.79
2022-11-21T23:55:43.634Z,67.47
2022-11-21T23:58:13.347Z,68.01
